Time;durP1;ratioP1;P1;durP2;ratioP2;P2;SDS_P1;SDS_P2;PMS_P1;PMS_P2;Temp;Humidity;BMP_temperature;BMP_pressure;BME280_temperature;BME280_humidity;BME280_pressure;Samples;Min_cycle;Max_cycle;Signal;HPM_P1;HPM_P2
2021/10/18 00:00:58;;;;;;;115.13;36.60;;;;;;;;;;5027018;28;20040;-50
2021/10/18 00:03:26;;;;;;;85.30;34.78;;;;;;;;;;5033597;28;20042;-56
2021/10/18 00:05:52;;;;;;;86.10;32.67;;;;;;;;;;5033441;28;20049;-48
2021/10/18 00:08:19;;;;;;;60.75;32.72;;;;;;;;;;5033714;28;20041;-52
2021/10/18 00:10:46;;;;;;;74.40;31.45;;;;;;;;;;5032471;28;20046;-52
2021/10/18 00:13:33;;;;;;;75.47;28.75;;;;;;;;;;5020962;28;20040;-51
2021/10/18 00:16:00;;;;;;;53.15;28.90;;;;;;;;;;5024429;28;20057;-53
2021/10/18 00:18:27;;;;;;;70.15;29.33;;;;;;;;;;5038211;28;20041;-54
2021/10/18 00:20:54;;;;;;;56.03;31.23;;;;;;;;;;5040752;28;20061;-55
2021/10/18 00:23:21;;;;;;;52.70;28.85;;;;;;;;;;5049867;22;20520;-47
2021/10/18 00:25:50;;;;;;;53.88;29.23;;;;;;;;;;5031645;28;20624;-53
2021/10/18 00:28:16;;;;;;;68.20;30.60;;;;;;;;;;5032715;28;20121;-50
2021/10/18 00:30:43;;;;;;;80.22;32.28;;;;;;;;;;5019502;28;20137;-47
2021/10/18 00:33:10;;;;;;;87.05;32.97;;;;;;;;;;5027422;28;20069;-48
2021/10/18 00:35:37;;;;;;;77.30;33.97;;;;;;;;;;5032561;28;20070;-52
2021/10/18 00:38:04;;;;;;;70.45;33.33;;;;;;;;;;5026012;28;20141;-51
2021/10/18 00:40:31;;;;;;;63.42;32.83;;;;;;;;;;5031524;28;20079;-51
2021/10/18 00:42:58;;;;;;;63.72;32.08;;;;;;;;;;5032386;28;20116;-50
2021/10/18 00:45:25;;;;;;;51.35;29.83;;;;;;;;;;5032093;28;20045;-50
2021/10/18 00:47:52;;;;;;;50.40;27.85;;;;;;;;;;5025003;28;20168;-51
2021/10/18 00:50:19;;;;;;;48.05;27.60;;;;;;;;;;5032954;28;20463;-52
2021/10/18 00:52:46;;;;;;;45.15;27.20;;;;;;;;;;5031468;28;20045;-49
2021/10/18 00:55:13;;;;;;;43.53;26.58;;;;;;;;;;5031556;28;20065;-49
2021/10/18 00:57:40;;;;;;;46.70;25.15;;;;;;;;;;5023072;28;20045;-50
2021/10/18 01:00:07;;;;;;;42.03;25.08;;;;;;;;;;5031287;28;20057;-51
2021/10/18 01:02:36;;;;;;;64.45;25.70;;;;;;;;;;5031542;28;20045;-51
2021/10/18 01:05:03;;;;;;;79.35;23.75;;;;;;;;;;5031417;28;20045;-49
2021/10/18 01:07:30;;;;;;;51.63;24.40;;;;;;;;;;5029395;28;20037;-51
2021/10/18 01:09:57;;;;;;;67.35;24.65;;;;;;;;;;5031271;28;20117;-51
2021/10/18 01:12:24;;;;;;;46.70;24.98;;;;;;;;;;5031520;28;20037;-47
2021/10/18 01:14:51;;;;;;;67.65;27.88;;;;;;;;;;5029110;28;20372;-48
2021/10/18 01:17:18;;;;;;;54.97;27.38;;;;;;;;;;5030666;28;20081;-49
2021/10/18 01:19:45;;;;;;;48.90;26.92;;;;;;;;;;5031263;28;20133;-48
2021/10/18 01:22:12;;;;;;;47.55;25.75;;;;;;;;;;5024489;28;20055;-48
2021/10/18 01:24:38;;;;;;;60.35;28.00;;;;;;;;;;5031271;28;20044;-47
2021/10/18 01:27:05;;;;;;;87.10;31.35;;;;;;;;;;5027648;28;20052;-51
2021/10/18 01:29:33;;;;;;;92.93;31.02;;;;;;;;;;5011967;28;20388;-52
2021/10/18 01:32:00;;;;;;;69.57;31.08;;;;;;;;;;5029408;28;20073;-52
2021/10/18 01:34:27;;;;;;;61.40;29.38;;;;;;;;;;5031470;28;20041;-57
2021/10/18 01:36:58;;;;;;;49.85;26.48;;;;;;;;;;5029642;28;20049;-51
2021/10/18 01:39:25;;;;;;;47.88;24.23;;;;;;;;;;5021563;28;20120;-49
2021/10/18 01:41:51;;;;;;;48.13;24.67;;;;;;;;;;5029972;28;20140;-49
2021/10/18 01:44:18;;;;;;;40.72;24.00;;;;;;;;;;5030161;28;20048;-50
2021/10/18 01:46:45;;;;;;;43.53;23.48;;;;;;;;;;5027331;28;20038;-52
2021/10/18 01:49:13;;;;;;;38.22;22.55;;;;;;;;;;5031435;28;20128;-52
2021/10/18 01:51:40;;;;;;;35.67;20.83;;;;;;;;;;5030241;28;20143;-49
2021/10/18 01:54:07;;;;;;;32.35;21.48;;;;;;;;;;5029986;28;20471;-50
2021/10/18 01:56:34;;;;;;;32.85;20.35;;;;;;;;;;5016159;28;20049;-51
2021/10/18 01:59:03;;;;;;;34.83;20.17;;;;;;;;;;5030253;28;20045;-50
2021/10/18 02:01:30;;;;;;;36.58;21.63;;;;;;;;;;5028159;28;20104;-50
2021/10/18 02:03:57;;;;;;;40.17;23.42;;;;;;;;;;5029389;28;20509;-50
2021/10/18 02:06:24;;;;;;;47.72;25.25;;;;;;;;;;5029559;28;20479;-49
2021/10/18 02:08:50;;;;;;;62.33;27.48;;;;;;;;;;5023280;28;20067;-50
2021/10/18 02:11:17;;;;;;;83.38;27.80;;;;;;;;;;5024057;28;20140;-53
2021/10/18 02:13:44;;;;;;;52.88;25.48;;;;;;;;;;5030190;28;20095;-53
2021/10/18 02:16:11;;;;;;;75.20;26.77;;;;;;;;;;5027226;28;20244;-54
2021/10/18 02:18:38;;;;;;;58.03;27.60;;;;;;;;;;5027287;28;20034;-52
2021/10/18 02:21:04;;;;;;;47.28;25.45;;;;;;;;;;5029892;28;20038;-53
2021/10/18 02:23:31;;;;;;;57.47;28.45;;;;;;;;;;5029748;28;20044;-50
2021/10/18 02:25:58;;;;;;;46.67;24.52;;;;;;;;;;5029480;28;20040;-52
2021/10/18 02:28:25;;;;;;;63.28;27.25;;;;;;;;;;5029329;28;20067;-52
2021/10/18 02:30:52;;;;;;;58.40;25.60;;;;;;;;;;5026824;28;20087;-52
2021/10/18 02:33:19;;;;;;;56.15;25.48;;;;;;;;;;5029174;28;20046;-51
2021/10/18 02:35:46;;;;;;;58.20;26.60;;;;;;;;;;5030067;28;20041;-50
2021/10/18 02:38:13;;;;;;;74.75;29.90;;;;;;;;;;5029252;28;20047;-50
2021/10/18 02:40:40;;;;;;;77.63;29.65;;;;;;;;;;5030643;28;20113;-50
2021/10/18 02:43:07;;;;;;;81.63;31.08;;;;;;;;;;5028244;28;20095;-53
2021/10/18 02:45:34;;;;;;;94.65;33.22;;;;;;;;;;5029918;28;20046;-54
2021/10/18 02:48:01;;;;;;;81.35;32.65;;;;;;;;;;5024734;28;20046;-51
2021/10/18 02:50:28;;;;;;;91.95;32.08;;;;;;;;;;5030108;28;20076;-49
2021/10/18 02:52:54;;;;;;;90.40;33.47;;;;;;;;;;5030435;28;20067;-51
2021/10/18 02:55:21;;;;;;;127.50;36.10;;;;;;;;;;5024913;28;20115;-50
2021/10/18 02:57:48;;;;;;;99.10;33.95;;;;;;;;;;5018571;28;20039;-50
2021/10/18 03:00:15;;;;;;;124.00;37.75;;;;;;;;;;5024894;28;20041;-49
2021/10/18 03:02:42;;;;;;;155.68;37.33;;;;;;;;;;5030683;28;20133;-53
2021/10/18 03:05:09;;;;;;;116.15;38.08;;;;;;;;;;5029093;28;20041;-52
2021/10/18 03:07:36;;;;;;;85.82;34.53;;;;;;;;;;5030066;28;20457;-50
2021/10/18 03:10:03;;;;;;;107.30;34.60;;;;;;;;;;5019687;28;20037;-49
2021/10/18 03:12:30;;;;;;;130.50;34.08;;;;;;;;;;5030172;28;20049;-52
2021/10/18 03:14:59;;;;;;;82.68;33.25;;;;;;;;;;5029395;28;20037;-52
2021/10/18 03:17:26;;;;;;;109.50;33.47;;;;;;;;;;5026872;28;20041;-52
2021/10/18 03:19:53;;;;;;;99.85;32.80;;;;;;;;;;5027831;28;20128;-50
2021/10/18 03:22:20;;;;;;;80.25;32.55;;;;;;;;;;5028627;28;20055;-53
2021/10/18 03:24:47;;;;;;;87.47;31.33;;;;;;;;;;5029135;28;20120;-53
2021/10/18 03:27:14;;;;;;;89.70;31.92;;;;;;;;;;5022084;28;20060;-52
2021/10/18 03:29:40;;;;;;;65.95;29.35;;;;;;;;;;5026101;28;20482;-52
2021/10/18 03:32:07;;;;;;;100.93;32.20;;;;;;;;;;5029284;28;20479;-53
2021/10/18 03:34:34;;;;;;;89.38;31.63;;;;;;;;;;5029372;28;20041;-53
2021/10/18 03:37:01;;;;;;;102.38;34.10;;;;;;;;;;5027180;28;20496;-48
2021/10/18 03:39:27;;;;;;;172.82;37.90;;;;;;;;;;5010542;28;20477;-47
2021/10/18 03:41:54;;;;;;;88.07;32.92;;;;;;;;;;5028127;28;20041;-52
2021/10/18 03:44:21;;;;;;;138.23;35.45;;;;;;;;;;5029413;28;20076;-49
2021/10/18 03:46:48;;;;;;;154.45;37.58;;;;;;;;;;5031075;28;20043;-46
2021/10/18 03:49:15;;;;;;;182.52;40.38;;;;;;;;;;5031679;28;20125;-48
2021/10/18 03:51:42;;;;;;;134.05;38.60;;;;;;;;;;5032926;28;20036;-47
2021/10/18 03:54:09;;;;;;;112.18;38.33;;;;;;;;;;5030724;28;20364;-50
2021/10/18 03:56:36;;;;;;;122.32;38.83;;;;;;;;;;5029063;28;20038;-53
2021/10/18 03:59:03;;;;;;;173.95;37.97;;;;;;;;;;5032704;28;20116;-52
2021/10/18 04:01:30;;;;;;;117.50;37.83;;;;;;;;;;5031969;28;20128;-53
2021/10/18 04:03:57;;;;;;;96.65;35.15;;;;;;;;;;5031910;28;20118;-51
2021/10/18 04:06:24;;;;;;;126.70;37.70;;;;;;;;;;5032190;28;20046;-52
2021/10/18 04:08:51;;;;;;;83.97;33.70;;;;;;;;;;5026515;28;20044;-53
2021/10/18 04:11:18;;;;;;;130.57;35.70;;;;;;;;;;5033129;28;20129;-49
2021/10/18 04:13:45;;;;;;;110.78;34.65;;;;;;;;;;5032465;28;20037;-52
2021/10/18 04:16:15;;;;;;;98.50;34.35;;;;;;;;;;5031068;28;20046;-52
2021/10/18 04:18:42;;;;;;;110.57;35.60;;;;;;;;;;5034924;28;20053;-52
2021/10/18 04:21:09;;;;;;;133.35;34.42;;;;;;;;;;5032240;28;20133;-50
2021/10/18 04:23:35;;;;;;;180.18;39.60;;;;;;;;;;5030844;28;20053;-49
2021/10/18 04:26:02;;;;;;;208.98;40.17;;;;;;;;;;5031925;28;20572;-49
2021/10/18 04:28:29;;;;;;;99.68;36.00;;;;;;;;;;5032218;28;20475;-48
2021/10/18 04:30:57;;;;;;;152.70;38.75;;;;;;;;;;5030193;28;20514;-47
2021/10/18 04:33:24;;;;;;;135.50;35.92;;;;;;;;;;5031327;28;20081;-48
2021/10/18 04:35:51;;;;;;;95.30;36.88;;;;;;;;;;5025643;28;20128;-50
2021/10/18 04:38:17;;;;;;;102.00;35.30;;;;;;;;;;5032020;28;20064;-48
2021/10/18 04:40:44;;;;;;;81.38;33.83;;;;;;;;;;5030883;28;20133;-48
2021/10/18 04:43:11;;;;;;;71.95;31.20;;;;;;;;;;5030580;28;20418;-50
2021/10/18 04:45:38;;;;;;;64.47;30.70;;;;;;;;;;5031212;28;22060;-48
2021/10/18 04:48:05;;;;;;;65.93;29.17;;;;;;;;;;5031992;28;20041;-50
2021/10/18 04:50:32;;;;;;;86.25;29.10;;;;;;;;;;5032089;28;20041;-49
2021/10/18 04:52:58;;;;;;;107.03;31.52;;;;;;;;;;5031693;28;20467;-49
2021/10/18 04:55:25;;;;;;;112.28;32.83;;;;;;;;;;5022529;28;20506;-48
2021/10/18 04:57:54;;;;;;;85.95;33.80;;;;;;;;;;5024566;28;20048;-48
2021/10/18 05:00:21;;;;;;;82.30;31.17;;;;;;;;;;5029460;28;20050;-48
2021/10/18 05:02:48;;;;;;;71.85;30.17;;;;;;;;;;5031423;28;20125;-49
2021/10/18 05:05:15;;;;;;;69.30;29.10;;;;;;;;;;5030691;28;20538;-49
2021/10/18 05:07:43;;;;;;;77.40;30.85;;;;;;;;;;5031794;28;20120;-46
2021/10/18 05:10:10;;;;;;;129.35;34.90;;;;;;;;;;5028154;28;20074;-48
2021/10/18 05:12:38;;;;;;;107.13;33.05;;;;;;;;;;5031294;28;20037;-48
2021/10/18 05:15:06;;;;;;;82.65;32.97;;;;;;;;;;5031370;28;20510;-49
2021/10/18 05:17:34;;;;;;;94.38;30.85;;;;;;;;;;5043236;28;20042;-47
2021/10/18 05:20:01;;;;;;;80.53;29.65;;;;;;;;;;5028076;28;20049;-49
2021/10/18 05:22:28;;;;;;;71.43;28.48;;;;;;;;;;5032219;28;20044;-47
2021/10/18 05:24:55;;;;;;;66.82;28.48;;;;;;;;;;5030974;28;20064;-50
2021/10/18 05:27:22;;;;;;;65.63;27.90;;;;;;;;;;5029704;28;20068;-50
2021/10/18 05:29:48;;;;;;;70.65;29.98;;;;;;;;;;5015740;28;20038;-51
2021/10/18 05:32:15;;;;;;;112.82;30.48;;;;;;;;;;5031714;28;20461;-52
2021/10/18 05:34:42;;;;;;;109.45;34.40;;;;;;;;;;5030050;28;20057;-49
2021/10/18 05:37:08;;;;;;;87.93;32.97;;;;;;;;;;5031483;28;20041;-49
2021/10/18 05:39:35;;;;;;;89.47;33.40;;;;;;;;;;5019178;28;20038;-50
2021/10/18 05:42:02;;;;;;;75.40;32.10;;;;;;;;;;5031476;28;20510;-47
2021/10/18 05:44:29;;;;;;;93.03;29.92;;;;;;;;;;5030221;28;20048;-50
2021/10/18 05:46:56;;;;;;;88.18;30.83;;;;;;;;;;5029117;28;20108;-50
2021/10/18 05:49:23;;;;;;;101.80;33.03;;;;;;;;;;5030141;28;20136;-51
2021/10/18 05:51:50;;;;;;;130.95;34.38;;;;;;;;;;5031741;28;20051;-50
2021/10/18 05:54:16;;;;;;;140.25;37.20;;;;;;;;;;5031187;28;20125;-49
2021/10/18 05:56:43;;;;;;;101.00;33.20;;;;;;;;;;5022138;28;20108;-48
2021/10/18 05:59:10;;;;;;;77.57;31.33;;;;;;;;;;5020073;28;20068;-50
2021/10/18 06:01:37;;;;;;;77.20;31.45;;;;;;;;;;5029618;28;20060;-50
2021/10/18 06:04:04;;;;;;;118.32;31.73;;;;;;;;;;5031024;28;20069;-50
2021/10/18 06:06:33;;;;;;;160.38;37.88;;;;;;;;;;5030417;28;20514;-51
2021/10/18 06:09:11;;;;;;;112.82;37.05;;;;;;;;;;5028004;28;20499;-50
2021/10/18 06:11:37;;;;;;;105.35;36.38;;;;;;;;;;5029908;28;20041;-50
2021/10/18 06:14:04;;;;;;;96.35;34.78;;;;;;;;;;5030691;28;20072;-53
2021/10/18 06:16:31;;;;;;;95.20;32.88;;;;;;;;;;5027370;28;20052;-53
2021/10/18 06:18:57;;;;;;;84.53;31.63;;;;;;;;;;5030971;28;20047;-51
2021/10/18 06:21:24;;;;;;;156.68;34.72;;;;;;;;;;5030428;28;20056;-54
2021/10/18 06:23:51;;;;;;;111.07;34.65;;;;;;;;;;5057294;22;20037;-49
2021/10/18 06:26:18;;;;;;;154.90;34.85;;;;;;;;;;4995062;28;20039;-50
2021/10/18 06:28:44;;;;;;;106.82;35.63;;;;;;;;;;5015126;28;20559;-50
2021/10/18 06:31:11;;;;;;;169.30;37.30;;;;;;;;;;5010249;28;20549;-50
2021/10/18 06:33:39;;;;;;;173.55;38.30;;;;;;;;;;5021050;28;20080;-48
2021/10/18 06:36:05;;;;;;;116.60;35.83;;;;;;;;;;5008964;28;20136;-48
2021/10/18 06:38:32;;;;;;;132.20;37.88;;;;;;;;;;5008516;28;20406;-50
2021/10/18 06:40:59;;;;;;;104.97;32.88;;;;;;;;;;5011490;28;20053;-55
2021/10/18 06:43:26;;;;;;;87.53;31.98;;;;;;;;;;5009838;28;20463;-49
2021/10/18 06:45:53;;;;;;;175.68;36.65;;;;;;;;;;4996314;28;20112;-49
2021/10/18 06:48:20;;;;;;;194.68;38.22;;;;;;;;;;5011596;28;20132;-47
2021/10/18 06:50:47;;;;;;;131.77;35.88;;;;;;;;;;5014625;28;20128;-49
2021/10/18 06:53:18;;;;;;;111.68;35.92;;;;;;;;;;5002385;28;20492;-49
2021/10/18 06:55:45;;;;;;;111.57;33.83;;;;;;;;;;5010396;28;20065;-50
2021/10/18 06:58:12;;;;;;;144.65;35.17;;;;;;;;;;5017472;28;20049;-48
2021/10/18 07:00:39;;;;;;;106.57;33.20;;;;;;;;;;5002211;28;20124;-48
2021/10/18 07:03:06;;;;;;;99.40;33.53;;;;;;;;;;5016498;28;20049;-51
2021/10/18 07:05:32;;;;;;;209.55;38.15;;;;;;;;;;5023056;28;20045;-49
2021/10/18 07:07:59;;;;;;;143.50;36.42;;;;;;;;;;5026127;28;20042;-48
2021/10/18 07:10:26;;;;;;;103.25;33.70;;;;;;;;;;5008473;28;20046;-49
2021/10/18 07:12:53;;;;;;;91.10;32.08;;;;;;;;;;5013887;28;20128;-49
2021/10/18 07:15:20;;;;;;;164.60;33.78;;;;;;;;;;5013782;28;20037;-47
2021/10/18 07:17:48;;;;;;;135.73;33.97;;;;;;;;;;5012114;28;20416;-48
2021/10/18 07:20:14;;;;;;;116.63;35.67;;;;;;;;;;5033617;28;20045;-49
2021/10/18 07:22:44;;;;;;;164.05;35.85;;;;;;;;;;5018340;28;20066;-48
2021/10/18 07:25:12;;;;;;;169.00;37.92;;;;;;;;;;5014320;28;20056;-48
2021/10/18 07:27:39;;;;;;;135.43;35.85;;;;;;;;;;5006109;28;20053;-47
2021/10/18 07:30:06;;;;;;;176.25;39.67;;;;;;;;;;5008314;28;20089;-50
2021/10/18 07:32:34;;;;;;;149.27;36.17;;;;;;;;;;5015068;28;20046;-47
2021/10/18 07:35:00;;;;;;;145.40;39.03;;;;;;;;;;5013369;28;20065;-51
2021/10/18 07:37:28;;;;;;;139.27;39.95;;;;;;;;;;5013033;28;20128;-51
2021/10/18 07:39:56;;;;;;;136.52;38.53;;;;;;;;;;5003156;28;20487;-51
2021/10/18 07:42:23;;;;;;;190.27;41.47;;;;;;;;;;5013365;28;20132;-50
2021/10/18 07:44:49;;;;;;;170.70;40.67;;;;;;;;;;5008424;28;20630;-52
2021/10/18 07:47:16;;;;;;;215.07;42.42;;;;;;;;;;5007036;28;20072;-48
2021/10/18 07:49:43;;;;;;;204.38;41.47;;;;;;;;;;5015354;28;20048;-49
2021/10/18 07:52:14;;;;;;;145.75;40.10;;;;;;;;;;5009401;28;20124;-48
2021/10/18 07:54:42;;;;;;;151.10;40.65;;;;;;;;;;5014461;28;20042;-52
2021/10/18 07:57:09;;;;;;;131.60;39.53;;;;;;;;;;5023291;28;20045;-48
2021/10/18 07:59:36;;;;;;;121.43;38.53;;;;;;;;;;5010358;28;20060;-50
2021/10/18 08:02:03;;;;;;;126.82;37.55;;;;;;;;;;5012330;28;20960;-52
2021/10/18 08:04:30;;;;;;;108.00;35.15;;;;;;;;;;5010478;28;20065;-49
2021/10/18 08:06:57;;;;;;;118.57;36.22;;;;;;;;;;5011505;28;20038;-52
2021/10/18 08:09:25;;;;;;;130.30;36.35;;;;;;;;;;5009709;28;20137;-50
2021/10/18 08:11:53;;;;;;;132.07;35.35;;;;;;;;;;4996505;28;20156;-51
2021/10/18 08:14:20;;;;;;;106.47;35.00;;;;;;;;;;5014103;28;20137;-49
2021/10/18 08:16:47;;;;;;;89.22;31.80;;;;;;;;;;5015235;28;20082;-49
2021/10/18 08:19:14;;;;;;;121.22;35.17;;;;;;;;;;5021465;28;20071;-47
2021/10/18 08:21:41;;;;;;;116.53;36.97;;;;;;;;;;5014286;28;20045;-50
2021/10/18 08:24:08;;;;;;;114.40;34.97;;;;;;;;;;5011512;28;20144;-52
2021/10/18 08:26:34;;;;;;;89.47;33.88;;;;;;;;;;5007401;28;20407;-50
2021/10/18 08:29:01;;;;;;;84.10;32.38;;;;;;;;;;5014677;28;20451;-50
2021/10/18 08:31:28;;;;;;;79.30;29.73;;;;;;;;;;5006839;28;20048;-50
2021/10/18 08:33:55;;;;;;;86.28;32.78;;;;;;;;;;5013961;28;20546;-49
2021/10/18 08:36:22;;;;;;;80.88;30.83;;;;;;;;;;5019631;28;20042;-54
2021/10/18 08:41:36;;;;;;;84.20;32.45;;;;;;;;;;5004942;28;20049;-48
2021/10/18 08:44:16;;;;;;;80.25;30.15;;;;;;;;;;5013398;28;20069;-50
2021/10/18 08:46:46;;;;;;;82.97;33.35;;;;;;;;;;5011975;28;20129;-48
2021/10/18 08:49:16;;;;;;;87.70;32.80;;;;;;;;;;5005980;28;20085;-49
2021/10/18 08:51:43;;;;;;;77.63;30.15;;;;;;;;;;5013439;28;20042;-51
2021/10/18 08:54:11;;;;;;;78.32;31.10;;;;;;;;;;5020911;28;20385;-50
2021/10/18 08:56:52;;;;;;;80.82;31.88;;;;;;;;;;5023028;28;20046;-46
2021/10/18 08:59:19;;;;;;;67.95;27.63;;;;;;;;;;4994139;28;20527;-53
2021/10/18 09:01:47;;;;;;;63.38;28.42;;;;;;;;;;5011432;28;20410;-48
2021/10/18 09:04:20;;;;;;;56.38;27.15;;;;;;;;;;5011924;28;20046;-51
2021/10/18 09:06:47;;;;;;;55.08;25.88;;;;;;;;;;5013323;28;20141;-49
2021/10/18 09:09:14;;;;;;;54.45;26.88;;;;;;;;;;5008904;28;20038;-50
2021/10/18 09:11:41;;;;;;;54.35;26.30;;;;;;;;;;5009685;28;20487;-50
2021/10/18 09:14:08;;;;;;;60.97;28.58;;;;;;;;;;5013247;28;20046;-48
2021/10/18 09:16:39;;;;;;;55.25;27.42;;;;;;;;;;5020113;28;20129;-51
2021/10/18 09:19:10;;;;;;;57.22;27.23;;;;;;;;;;5019946;28;20127;-52
2021/10/18 09:22:00;;;;;;;60.10;26.95;;;;;;;;;;5027909;28;20065;-48
2021/10/18 09:24:33;;;;;;;57.78;26.92;;;;;;;;;;4987915;28;20050;-48
2021/10/18 09:27:01;;;;;;;61.95;30.23;;;;;;;;;;5014364;28;20045;-49
2021/10/18 09:29:35;;;;;;;65.03;27.55;;;;;;;;;;5003524;28;20064;-52
2021/10/18 09:32:03;;;;;;;63.60;28.05;;;;;;;;;;5016538;28;20092;-48
2021/10/18 09:34:34;;;;;;;65.15;29.48;;;;;;;;;;5019744;28;20041;-46
2021/10/18 09:37:05;;;;;;;63.13;30.00;;;;;;;;;;5012404;28;20038;-49
2021/10/18 09:39:32;;;;;;;59.67;28.13;;;;;;;;;;5011183;28;20077;-49
2021/10/18 09:42:04;;;;;;;56.72;28.08;;;;;;;;;;5013053;28;20045;-50
2021/10/18 09:45:29;;;;;;;66.25;29.80;;;;;;;;;;5003671;28;20045;-51
2021/10/18 10:52:49;;;;;;;43.83;25.45;;;;;;;;;;5021494;28;20117;-52
2021/10/18 10:55:20;;;;;;;44.58;24.88;;;;;;;;;;5013322;28;20049;-49
2021/10/18 10:57:48;;;;;;;43.25;24.27;;;;;;;;;;5004308;28;20112;-48
2021/10/18 11:00:29;;;;;;;39.78;23.63;;;;;;;;;;5009543;28;20415;-45
2021/10/18 11:03:14;;;;;;;47.05;25.17;;;;;;;;;;5014053;28;20046;-49
2021/10/18 11:05:57;;;;;;;41.47;24.33;;;;;;;;;;5014447;28;20046;-45
2021/10/18 11:08:32;;;;;;;36.55;22.23;;;;;;;;;;5010834;28;20746;-49
2021/10/18 11:11:26;;;;;;;36.13;23.10;;;;;;;;;;5011680;28;20093;-45
2021/10/18 11:13:54;;;;;;;38.75;23.15;;;;;;;;;;5006496;28;20484;-46
2021/10/18 11:16:23;;;;;;;37.28;24.08;;;;;;;;;;5005764;28;20097;-46
2021/10/18 11:18:56;;;;;;;36.78;23.00;;;;;;;;;;4998025;28;20039;-44
2021/10/18 11:21:23;;;;;;;37.85;22.08;;;;;;;;;;5011489;28;20129;-46
2021/10/18 11:23:58;;;;;;;39.28;23.35;;;;;;;;;;5027592;28;20042;-43
2021/10/18 11:26:25;;;;;;;38.47;23.92;;;;;;;;;;5011041;28;20048;-44
2021/10/18 11:28:53;;;;;;;38.28;24.20;;;;;;;;;;5011977;28;20046;-46
2021/10/18 11:31:23;;;;;;;37.67;22.58;;;;;;;;;;5010638;28;20431;-46
2021/10/18 11:34:07;;;;;;;37.20;23.38;;;;;;;;;;5005765;28;20134;-45
2021/10/18 11:36:35;;;;;;;37.40;22.48;;;;;;;;;;5024976;28;20502;-47
2021/10/18 11:39:22;;;;;;;36.60;21.65;;;;;;;;;;5028020;28;20485;-47
2021/10/18 11:41:58;;;;;;;34.67;22.20;;;;;;;;;;5010314;28;20038;-44
2021/10/18 11:44:38;;;;;;;34.13;21.85;;;;;;;;;;5024476;28;20045;-46
2021/10/18 11:47:06;;;;;;;30.85;21.08;;;;;;;;;;5018913;28;20053;-45
2021/10/18 11:49:32;;;;;;;32.58;22.05;;;;;;;;;;5003106;28;20061;-48
2021/10/18 11:52:05;;;;;;;33.50;22.73;;;;;;;;;;5013609;28;20116;-46
2021/10/18 11:54:32;;;;;;;33.63;22.63;;;;;;;;;;5013210;28;20518;-55
2021/10/18 11:56:59;;;;;;;31.95;23.70;;;;;;;;;;5016481;28;20080;-50
2021/10/18 11:59:25;;;;;;;30.08;22.98;;;;;;;;;;4996542;28;20136;-49
2021/10/18 12:01:52;;;;;;;30.98;22.00;;;;;;;;;;5019016;28;20064;-51
2021/10/18 12:04:19;;;;;;;31.27;22.38;;;;;;;;;;5022467;28;20041;-50
2021/10/18 12:06:47;;;;;;;28.90;21.98;;;;;;;;;;5014392;28;20057;-48
2021/10/18 12:09:29;;;;;;;27.58;21.45;;;;;;;;;;5012380;28;20069;-47
2021/10/18 12:11:56;;;;;;;29.02;21.73;;;;;;;;;;5014569;28;20506;-48
2021/10/18 12:14:22;;;;;;;33.00;24.63;;;;;;;;;;5013211;28;20562;-51
2021/10/18 12:16:49;;;;;;;35.25;24.27;;;;;;;;;;5030768;28;20034;-50
2021/10/18 12:19:16;;;;;;;32.35;23.77;;;;;;;;;;5019425;28;20034;-49
2021/10/18 12:21:45;;;;;;;31.67;23.65;;;;;;;;;;5017431;28;20033;-48
2021/10/18 12:24:13;;;;;;;34.40;24.50;;;;;;;;;;5036072;23;20132;-48
2021/10/18 12:26:40;;;;;;;33.30;24.35;;;;;;;;;;5040237;28;20049;-47
2021/10/18 12:29:08;;;;;;;34.20;24.08;;;;;;;;;;5052902;28;20077;-49
2021/10/18 12:31:37;;;;;;;29.30;22.50;;;;;;;;;;5044656;28;20033;-49
2021/10/18 12:34:06;;;;;;;29.75;22.45;;;;;;;;;;5048749;28;20048;-52
2021/10/18 12:36:45;;;;;;;33.63;24.42;;;;;;;;;;5066418;28;20074;-50
2021/10/18 12:39:35;;;;;;;28.58;22.10;;;;;;;;;;5067024;28;20083;-47
2021/10/18 12:42:03;;;;;;;30.33;23.15;;;;;;;;;;5069772;28;20139;-52
2021/10/18 12:44:35;;;;;;;31.65;24.30;;;;;;;;;;5054466;28;20073;-46
2021/10/18 12:47:09;;;;;;;29.20;23.65;;;;;;;;;;5052606;28;20055;-49
2021/10/18 12:49:35;;;;;;;32.20;24.83;;;;;;;;;;5068763;28;20037;-47
2021/10/18 12:52:03;;;;;;;33.80;25.17;;;;;;;;;;5055925;28;20041;-49
2021/10/18 12:54:50;;;;;;;35.15;25.02;;;;;;;;;;5051695;28;20037;-49
2021/10/18 12:57:22;;;;;;;34.13;25.40;;;;;;;;;;5052419;28;20037;-48
2021/10/18 13:00:09;;;;;;;36.95;24.88;;;;;;;;;;5057085;28;20107;-49
2021/10/18 13:02:40;;;;;;;36.92;25.60;;;;;;;;;;5049251;28;20144;-49
2021/10/18 13:05:17;;;;;;;32.67;23.02;;;;;;;;;;5069276;28;20114;-51
2021/10/18 13:07:45;;;;;;;32.40;23.35;;;;;;;;;;5069161;28;20087;-48
2021/10/18 13:10:13;;;;;;;31.48;24.00;;;;;;;;;;5055597;28;20520;-48
2021/10/18 13:12:41;;;;;;;31.70;23.83;;;;;;;;;;5071396;28;20127;-47
2021/10/18 13:15:09;;;;;;;33.90;24.30;;;;;;;;;;5068375;28;20123;-49
2021/10/18 13:17:35;;;;;;;31.52;23.70;;;;;;;;;;5065663;28;20037;-48
2021/10/18 13:20:04;;;;;;;32.92;24.98;;;;;;;;;;5084379;28;20041;-48
2021/10/18 13:22:31;;;;;;;36.85;23.52;;;;;;;;;;5067214;28;20044;-47
2021/10/18 13:24:58;;;;;;;38.33;24.05;;;;;;;;;;5066965;28;20078;-49
2021/10/18 13:27:25;;;;;;;31.92;22.90;;;;;;;;;;5064440;28;20135;-48
2021/10/18 13:29:52;;;;;;;32.08;23.27;;;;;;;;;;5069172;28;20040;-50
2021/10/18 13:32:40;;;;;;;34.28;23.98;;;;;;;;;;5070310;28;20037;-49
2021/10/18 13:35:08;;;;;;;34.08;23.33;;;;;;;;;;5057420;28;20045;-46
2021/10/18 13:37:35;;;;;;;36.72;23.02;;;;;;;;;;5061867;28;20516;-49
2021/10/18 13:40:02;;;;;;;41.70;24.67;;;;;;;;;;5054813;28;20045;-47
2021/10/18 13:42:30;;;;;;;33.85;24.30;;;;;;;;;;5057797;28;20045;-46
2021/10/18 13:44:57;;;;;;;35.13;23.50;;;;;;;;;;5070820;28;20132;-48
2021/10/18 13:47:24;;;;;;;37.42;24.70;;;;;;;;;;5074776;28;20097;-48
2021/10/18 13:49:51;;;;;;;33.17;20.20;;;;;;;;;;5060051;28;20040;-50
2021/10/18 13:52:18;;;;;;;34.28;22.88;;;;;;;;;;5077052;28;20064;-46
2021/10/18 13:54:45;;;;;;;32.40;23.23;;;;;;;;;;5079382;28;20043;-50
2021/10/18 13:57:12;;;;;;;33.05;21.90;;;;;;;;;;5065689;28;20086;-51
2021/10/18 13:59:41;;;;;;;33.05;22.50;;;;;;;;;;5052460;28;20103;-49
2021/10/18 14:02:09;;;;;;;29.73;21.00;;;;;;;;;;5082075;28;20131;-46
2021/10/18 14:04:36;;;;;;;34.13;21.30;;;;;;;;;;5068823;28;20060;-48
2021/10/18 14:07:03;;;;;;;32.55;21.60;;;;;;;;;;5070396;28;20052;-48
2021/10/18 14:09:29;;;;;;;30.95;22.70;;;;;;;;;;5056163;28;20045;-48
2021/10/18 14:11:57;;;;;;;33.92;21.67;;;;;;;;;;5064952;28;20164;-48
2021/10/18 14:14:24;;;;;;;32.13;22.23;;;;;;;;;;5074792;28;20119;-47
2021/10/18 14:16:51;;;;;;;30.90;21.23;;;;;;;;;;5053031;28;20048;-47
2021/10/18 14:19:18;;;;;;;31.15;20.77;;;;;;;;;;5074237;28;20473;-48
2021/10/18 14:21:45;;;;;;;30.48;21.67;;;;;;;;;;5068793;28;20044;-47
2021/10/18 14:24:12;;;;;;;33.05;22.63;;;;;;;;;;5054613;28;20041;-49
2021/10/18 14:26:39;;;;;;;30.73;21.75;;;;;;;;;;5060376;28;20487;-46
2021/10/18 14:29:06;;;;;;;41.67;22.02;;;;;;;;;;5078574;28;20405;-48
2021/10/18 14:31:34;;;;;;;33.88;22.33;;;;;;;;;;5083456;28;20156;-48
2021/10/18 14:34:01;;;;;;;30.83;21.05;;;;;;;;;;5074442;28;20051;-47
2021/10/18 14:36:29;;;;;;;33.58;22.15;;;;;;;;;;5068471;28;20041;-49
2021/10/18 14:38:56;;;;;;;27.63;18.65;;;;;;;;;;5056225;28;20068;-49
2021/10/18 14:41:26;;;;;;;32.30;21.55;;;;;;;;;;5064048;28;20036;-47
2021/10/18 14:43:56;;;;;;;29.40;20.52;;;;;;;;;;5052311;28;20147;-48
2021/10/18 14:46:24;;;;;;;33.65;22.40;;;;;;;;;;5063358;28;20041;-48
2021/10/18 14:48:52;;;;;;;32.78;21.55;;;;;;;;;;5069592;28;20078;-47
2021/10/18 14:51:20;;;;;;;32.25;21.38;;;;;;;;;;5060713;28;20044;-52
2021/10/18 14:53:50;;;;;;;32.03;21.67;;;;;;;;;;5067851;28;20636;-46
2021/10/18 14:56:18;;;;;;;30.83;21.50;;;;;;;;;;5069718;28;20045;-48
2021/10/18 14:58:45;;;;;;;32.55;20.92;;;;;;;;;;5077494;28;20529;-46
2021/10/18 15:01:12;;;;;;;33.92;22.23;;;;;;;;;;5058229;28;20075;-52
2021/10/18 15:03:40;;;;;;;31.35;20.50;;;;;;;;;;5071810;28;20045;-48
2021/10/18 15:06:08;;;;;;;31.67;21.63;;;;;;;;;;5070709;28;20049;-49
2021/10/18 15:08:35;;;;;;;33.28;21.63;;;;;;;;;;5055568;28;20044;-49
2021/10/18 15:11:03;;;;;;;32.45;21.90;;;;;;;;;;5066338;28;20525;-46
2021/10/18 15:13:30;;;;;;;30.58;22.20;;;;;;;;;;5066096;28;20124;-50
2021/10/18 15:15:57;;;;;;;33.85;22.52;;;;;;;;;;5073532;28;20566;-48
2021/10/18 15:18:24;;;;;;;30.35;20.73;;;;;;;;;;5056991;28;20498;-49
2021/10/18 15:20:51;;;;;;;32.03;21.52;;;;;;;;;;5057550;28;20056;-49
2021/10/18 15:23:18;;;;;;;32.42;22.98;;;;;;;;;;5082305;28;20109;-52
2021/10/18 15:25:45;;;;;;;34.45;22.85;;;;;;;;;;5066972;28;20568;-49
2021/10/18 15:28:12;;;;;;;32.90;23.25;;;;;;;;;;5068470;28;20050;-52